sensor_id;sensor_type;location;lat;lon;timestamp;P1;durP1;ratioP1;P2;durP2;ratioP2
14316;SDS011;7242;50.858;6.586;2024-03-08T00:00:32;22.53;;;18.33;;
14316;SDS011;7242;50.858;6.586;2024-03-08T00:03:33;23.73;;;18.27;;
14316;SDS011;7242;50.858;6.586;2024-03-08T00:06:35;19.77;;;17.63;;
14316;SDS011;7242;50.858;6.586;2024-03-08T00:09:35;21.87;;;18.23;;
14316;SDS011;7242;50.858;6.586;2024-03-08T00:12:40;22.33;;;18.13;;
14316;SDS011;7242;50.858;6.586;2024-03-08T00:15:42;21.50;;;17.93;;
14316;SDS011;7242;50.858;6.586;2024-03-08T00:18:43;20.67;;;18.43;;
14316;SDS011;7242;50.858;6.586;2024-03-08T00:21:44;22.50;;;18.57;;
14316;SDS011;7242;50.858;6.586;2024-03-08T00:24:45;21.00;;;17.97;;
14316;SDS011;7242;50.858;6.586;2024-03-08T00:27:46;23.33;;;18.30;;
14316;SDS011;7242;50.858;6.586;2024-03-08T00:30:49;22.90;;;18.00;;
14316;SDS011;7242;50.858;6.586;2024-03-08T00:33:50;23.03;;;18.63;;
14316;SDS011;7242;50.858;6.586;2024-03-08T00:36:52;25.17;;;18.67;;
14316;SDS011;7242;50.858;6.586;2024-03-08T00:39:54;24.50;;;18.70;;
14316;SDS011;7242;50.858;6.586;2024-03-08T00:42:54;24.23;;;19.53;;
14316;SDS011;7242;50.858;6.586;2024-03-08T00:45:55;22.53;;;19.30;;
14316;SDS011;7242;50.858;6.586;2024-03-08T00:48:58;24.97;;;19.33;;
14316;SDS011;7242;50.858;6.586;2024-03-08T00:51:59;24.00;;;19.57;;
14316;SDS011;7242;50.858;6.586;2024-03-08T00:55:00;23.50;;;19.43;;
14316;SDS011;7242;50.858;6.586;2024-03-08T00:58:00;22.53;;;18.67;;
14316;SDS011;7242;50.858;6.586;2024-03-08T01:01:02;23.83;;;19.20;;
14316;SDS011;7242;50.858;6.586;2024-03-08T01:04:03;27.60;;;19.97;;
14316;SDS011;7242;50.858;6.586;2024-03-08T01:07:04;23.77;;;19.10;;
14316;SDS011;7242;50.858;6.586;2024-03-08T01:10:06;23.23;;;18.33;;
14316;SDS011;7242;50.858;6.586;2024-03-08T01:13:10;22.70;;;19.00;;
14316;SDS011;7242;50.858;6.586;2024-03-08T01:16:11;26.40;;;19.50;;
14316;SDS011;7242;50.858;6.586;2024-03-08T01:19:12;24.43;;;19.00;;
14316;SDS011;7242;50.858;6.586;2024-03-08T01:22:14;24.20;;;20.13;;
14316;SDS011;7242;50.858;6.586;2024-03-08T01:25:15;25.37;;;20.10;;
14316;SDS011;7242;50.858;6.586;2024-03-08T01:28:15;24.63;;;19.83;;
14316;SDS011;7242;50.858;6.586;2024-03-08T01:31:17;28.33;;;20.90;;
14316;SDS011;7242;50.858;6.586;2024-03-08T01:34:17;28.30;;;20.13;;
14316;SDS011;7242;50.858;6.586;2024-03-08T01:37:19;24.00;;;20.30;;
14316;SDS011;7242;50.858;6.586;2024-03-08T01:40:20;25.37;;;20.57;;
14316;SDS011;7242;50.858;6.586;2024-03-08T01:43:21;27.17;;;21.27;;
14316;SDS011;7242;50.858;6.586;2024-03-08T01:46:25;25.63;;;19.57;;
14316;SDS011;7242;50.858;6.586;2024-03-08T01:49:28;25.50;;;20.17;;
14316;SDS011;7242;50.858;6.586;2024-03-08T01:52:29;26.33;;;20.13;;
14316;SDS011;7242;50.858;6.586;2024-03-08T01:55:31;22.63;;;18.70;;
14316;SDS011;7242;50.858;6.586;2024-03-08T01:58:33;25.10;;;20.10;;
14316;SDS011;7242;50.858;6.586;2024-03-08T02:01:34;26.30;;;19.10;;
14316;SDS011;7242;50.858;6.586;2024-03-08T02:04:35;25.00;;;19.83;;
14316;SDS011;7242;50.858;6.586;2024-03-08T02:07:38;24.83;;;19.20;;
14316;SDS011;7242;50.858;6.586;2024-03-08T02:10:44;23.50;;;19.43;;
14316;SDS011;7242;50.858;6.586;2024-03-08T02:13:45;25.20;;;19.87;;
14316;SDS011;7242;50.858;6.586;2024-03-08T02:16:46;27.53;;;20.00;;
14316;SDS011;7242;50.858;6.586;2024-03-08T02:19:47;23.93;;;19.20;;
14316;SDS011;7242;50.858;6.586;2024-03-08T02:22:49;24.97;;;20.10;;
14316;SDS011;7242;50.858;6.586;2024-03-08T02:25:51;26.67;;;20.00;;
14316;SDS011;7242;50.858;6.586;2024-03-08T02:28:53;25.53;;;20.10;;
14316;SDS011;7242;50.858;6.586;2024-03-08T02:31:54;26.60;;;20.43;;
14316;SDS011;7242;50.858;6.586;2024-03-08T02:34:57;26.20;;;19.97;;
14316;SDS011;7242;50.858;6.586;2024-03-08T02:38:00;26.47;;;20.23;;
14316;SDS011;7242;50.858;6.586;2024-03-08T02:41:01;26.87;;;20.60;;
14316;SDS011;7242;50.858;6.586;2024-03-08T02:44:04;28.10;;;20.40;;
14316;SDS011;7242;50.858;6.586;2024-03-08T02:47:04;27.57;;;21.03;;
14316;SDS011;7242;50.858;6.586;2024-03-08T02:50:06;27.73;;;21.23;;
14316;SDS011;7242;50.858;6.586;2024-03-08T02:53:10;26.73;;;21.40;;
14316;SDS011;7242;50.858;6.586;2024-03-08T02:56:12;30.03;;;22.03;;
14316;SDS011;7242;50.858;6.586;2024-03-08T02:59:16;26.97;;;21.20;;
14316;SDS011;7242;50.858;6.586;2024-03-08T03:02:17;29.37;;;21.70;;
14316;SDS011;7242;50.858;6.586;2024-03-08T03:05:19;28.23;;;22.13;;
14316;SDS011;7242;50.858;6.586;2024-03-08T03:08:21;29.17;;;21.83;;
14316;SDS011;7242;50.858;6.586;2024-03-08T03:11:22;29.27;;;22.57;;
14316;SDS011;7242;50.858;6.586;2024-03-08T03:14:23;28.23;;;22.43;;
14316;SDS011;7242;50.858;6.586;2024-03-08T03:17:24;27.77;;;21.50;;
14316;SDS011;7242;50.858;6.586;2024-03-08T03:20:25;30.03;;;21.87;;
14316;SDS011;7242;50.858;6.586;2024-03-08T03:23:32;28.67;;;21.87;;
14316;SDS011;7242;50.858;6.586;2024-03-08T03:26:35;26.77;;;21.43;;
14316;SDS011;7242;50.858;6.586;2024-03-08T03:29:39;30.40;;;22.13;;
14316;SDS011;7242;50.858;6.586;2024-03-08T03:32:42;30.17;;;22.57;;
14316;SDS011;7242;50.858;6.586;2024-03-08T03:35:47;30.30;;;22.77;;
14316;SDS011;7242;50.858;6.586;2024-03-08T03:38:47;30.30;;;22.03;;
14316;SDS011;7242;50.858;6.586;2024-03-08T03:41:49;29.40;;;22.13;;
14316;SDS011;7242;50.858;6.586;2024-03-08T03:44:52;29.00;;;21.93;;
14316;SDS011;7242;50.858;6.586;2024-03-08T03:47:53;31.23;;;22.23;;
14316;SDS011;7242;50.858;6.586;2024-03-08T03:50:54;28.23;;;20.80;;
14316;SDS011;7242;50.858;6.586;2024-03-08T03:53:55;27.80;;;20.47;;
14316;SDS011;7242;50.858;6.586;2024-03-08T03:56:57;29.83;;;21.70;;
14316;SDS011;7242;50.858;6.586;2024-03-08T03:59:59;27.87;;;21.30;;
14316;SDS011;7242;50.858;6.586;2024-03-08T04:03:00;29.20;;;21.30;;
14316;SDS011;7242;50.858;6.586;2024-03-08T04:06:01;28.77;;;20.80;;
14316;SDS011;7242;50.858;6.586;2024-03-08T04:09:02;28.20;;;21.37;;
14316;SDS011;7242;50.858;6.586;2024-03-08T04:12:04;28.27;;;21.03;;
14316;SDS011;7242;50.858;6.586;2024-03-08T04:15:06;31.63;;;21.93;;
14316;SDS011;7242;50.858;6.586;2024-03-08T04:18:11;27.17;;;20.63;;
14316;SDS011;7242;50.858;6.586;2024-03-08T04:21:12;29.23;;;21.40;;
14316;SDS011;7242;50.858;6.586;2024-03-08T04:24:13;28.13;;;21.23;;
14316;SDS011;7242;50.858;6.586;2024-03-08T04:27:15;29.10;;;22.27;;
14316;SDS011;7242;50.858;6.586;2024-03-08T04:30:16;27.63;;;21.83;;
14316;SDS011;7242;50.858;6.586;2024-03-08T04:33:18;26.77;;;20.70;;
14316;SDS011;7242;50.858;6.586;2024-03-08T04:36:19;30.83;;;21.30;;
14316;SDS011;7242;50.858;6.586;2024-03-08T04:39:20;29.70;;;21.57;;
14316;SDS011;7242;50.858;6.586;2024-03-08T04:42:21;29.27;;;20.97;;
14316;SDS011;7242;50.858;6.586;2024-03-08T04:45:23;29.00;;;21.53;;
14316;SDS011;7242;50.858;6.586;2024-03-08T04:48:25;27.37;;;21.20;;
14316;SDS011;7242;50.858;6.586;2024-03-08T04:51:27;29.20;;;22.67;;
14316;SDS011;7242;50.858;6.586;2024-03-08T04:54:28;28.03;;;22.47;;
14316;SDS011;7242;50.858;6.586;2024-03-08T04:57:29;30.17;;;21.47;;
14316;SDS011;7242;50.858;6.586;2024-03-08T05:00:30;27.03;;;21.43;;
14316;SDS011;7242;50.858;6.586;2024-03-08T05:03:31;26.40;;;20.57;;
14316;SDS011;7242;50.858;6.586;2024-03-08T05:06:32;28.17;;;21.33;;
14316;SDS011;7242;50.858;6.586;2024-03-08T05:09:33;26.97;;;21.10;;
14316;SDS011;7242;50.858;6.586;2024-03-08T05:12:36;28.03;;;21.97;;
14316;SDS011;7242;50.858;6.586;2024-03-08T05:15:39;29.60;;;21.93;;
14316;SDS011;7242;50.858;6.586;2024-03-08T05:18:40;28.57;;;21.60;;
14316;SDS011;7242;50.858;6.586;2024-03-08T05:21:45;27.77;;;20.10;;
14316;SDS011;7242;50.858;6.586;2024-03-08T05:24:47;29.97;;;21.67;;
14316;SDS011;7242;50.858;6.586;2024-03-08T05:27:48;30.70;;;22.23;;
14316;SDS011;7242;50.858;6.586;2024-03-08T05:30:49;29.07;;;21.83;;
14316;SDS011;7242;50.858;6.586;2024-03-08T05:33:50;29.57;;;21.30;;
14316;SDS011;7242;50.858;6.586;2024-03-08T05:36:53;27.23;;;21.07;;
14316;SDS011;7242;50.858;6.586;2024-03-08T05:39:54;28.83;;;21.97;;
14316;SDS011;7242;50.858;6.586;2024-03-08T05:42:56;26.80;;;20.17;;
14316;SDS011;7242;50.858;6.586;2024-03-08T05:45:57;31.43;;;22.13;;
14316;SDS011;7242;50.858;6.586;2024-03-08T05:48:58;30.03;;;22.33;;
14316;SDS011;7242;50.858;6.586;2024-03-08T05:51:59;29.90;;;22.40;;
14316;SDS011;7242;50.858;6.586;2024-03-08T05:55:00;32.47;;;23.47;;
14316;SDS011;7242;50.858;6.586;2024-03-08T05:58:01;30.20;;;22.63;;
14316;SDS011;7242;50.858;6.586;2024-03-08T06:01:02;31.47;;;22.60;;
14316;SDS011;7242;50.858;6.586;2024-03-08T06:04:07;29.90;;;22.47;;
14316;SDS011;7242;50.858;6.586;2024-03-08T06:07:09;33.33;;;22.53;;
14316;SDS011;7242;50.858;6.586;2024-03-08T06:10:12;30.43;;;22.33;;
14316;SDS011;7242;50.858;6.586;2024-03-08T06:13:14;30.00;;;22.20;;
14316;SDS011;7242;50.858;6.586;2024-03-08T06:16:15;32.03;;;23.03;;
14316;SDS011;7242;50.858;6.586;2024-03-08T06:19:16;29.67;;;22.13;;
14316;SDS011;7242;50.858;6.586;2024-03-08T06:22:17;29.57;;;21.63;;
14316;SDS011;7242;50.858;6.586;2024-03-08T06:25:20;32.50;;;23.10;;
14316;SDS011;7242;50.858;6.586;2024-03-08T06:28:21;28.17;;;21.50;;
14316;SDS011;7242;50.858;6.586;2024-03-08T06:31:23;31.73;;;22.60;;
14316;SDS011;7242;50.858;6.586;2024-03-08T06:34:24;30.43;;;22.87;;
14316;SDS011;7242;50.858;6.586;2024-03-08T06:37:25;27.80;;;21.37;;
14316;SDS011;7242;50.858;6.586;2024-03-08T06:40:26;27.47;;;20.93;;
14316;SDS011;7242;50.858;6.586;2024-03-08T06:43:27;30.07;;;22.37;;
14316;SDS011;7242;50.858;6.586;2024-03-08T06:46:34;29.10;;;20.50;;
14316;SDS011;7242;50.858;6.586;2024-03-08T06:49:35;24.83;;;19.90;;
14316;SDS011;7242;50.858;6.586;2024-03-08T06:52:36;25.17;;;19.73;;
14316;SDS011;7242;50.858;6.586;2024-03-08T06:55:37;23.23;;;18.17;;
14316;SDS011;7242;50.858;6.586;2024-03-08T06:58:38;23.67;;;17.13;;
14316;SDS011;7242;50.858;6.586;2024-03-08T07:01:40;23.53;;;16.20;;
14316;SDS011;7242;50.858;6.586;2024-03-08T07:04:41;24.17;;;16.77;;
14316;SDS011;7242;50.858;6.586;2024-03-08T07:07:42;18.60;;;14.27;;
14316;SDS011;7242;50.858;6.586;2024-03-08T07:10:43;20.90;;;15.77;;
14316;SDS011;7242;50.858;6.586;2024-03-08T07:13:45;19.73;;;15.90;;
14316;SDS011;7242;50.858;6.586;2024-03-08T07:16:46;20.20;;;15.40;;
14316;SDS011;7242;50.858;6.586;2024-03-08T07:19:47;18.63;;;14.60;;
14316;SDS011;7242;50.858;6.586;2024-03-08T07:22:48;22.97;;;16.10;;
14316;SDS011;7242;50.858;6.586;2024-03-08T07:25:52;19.97;;;15.80;;
14316;SDS011;7242;50.858;6.586;2024-03-08T07:28:53;20.63;;;15.20;;
14316;SDS011;7242;50.858;6.586;2024-03-08T07:31:58;18.00;;;15.00;;
14316;SDS011;7242;50.858;6.586;2024-03-08T07:35:17;22.87;;;17.23;;
14316;SDS011;7242;50.858;6.586;2024-03-08T07:38:19;19.83;;;16.33;;
14316;SDS011;7242;50.858;6.586;2024-03-08T07:41:21;19.93;;;16.40;;
14316;SDS011;7242;50.858;6.586;2024-03-08T07:44:23;19.70;;;16.50;;
14316;SDS011;7242;50.858;6.586;2024-03-08T07:47:24;20.93;;;16.23;;
14316;SDS011;7242;50.858;6.586;2024-03-08T07:50:26;22.63;;;16.87;;
14316;SDS011;7242;50.858;6.586;2024-03-08T07:53:27;18.80;;;15.63;;
14316;SDS011;7242;50.858;6.586;2024-03-08T07:56:27;18.63;;;15.67;;
14316;SDS011;7242;50.858;6.586;2024-03-08T07:59:29;18.40;;;15.80;;
14316;SDS011;7242;50.858;6.586;2024-03-08T08:02:30;18.70;;;15.60;;
14316;SDS011;7242;50.858;6.586;2024-03-08T08:05:32;21.30;;;17.17;;
14316;SDS011;7242;50.858;6.586;2024-03-08T08:08:35;19.50;;;17.30;;
14316;SDS011;7242;50.858;6.586;2024-03-08T08:11:37;18.80;;;16.00;;
14316;SDS011;7242;50.858;6.586;2024-03-08T08:14:38;20.20;;;17.10;;
14316;SDS011;7242;50.858;6.586;2024-03-08T08:17:39;20.97;;;17.43;;
14316;SDS011;7242;50.858;6.586;2024-03-08T08:20:40;21.93;;;17.37;;
14316;SDS011;7242;50.858;6.586;2024-03-08T08:23:42;21.70;;;16.90;;
14316;SDS011;7242;50.858;6.586;2024-03-08T08:26:43;23.70;;;17.40;;
14316;SDS011;7242;50.858;6.586;2024-03-08T08:29:44;21.93;;;17.77;;
14316;SDS011;7242;50.858;6.586;2024-03-08T08:32:46;21.53;;;16.07;;
14316;SDS011;7242;50.858;6.586;2024-03-08T08:35:48;23.90;;;17.03;;
14316;SDS011;7242;50.858;6.586;2024-03-08T08:38:54;23.23;;;16.53;;
14316;SDS011;7242;50.858;6.586;2024-03-08T08:41:55;23.60;;;17.67;;
14316;SDS011;7242;50.858;6.586;2024-03-08T08:44:56;21.60;;;15.63;;
14316;SDS011;7242;50.858;6.586;2024-03-08T08:47:57;22.67;;;17.00;;
14316;SDS011;7242;50.858;6.586;2024-03-08T08:51:02;24.23;;;16.63;;
14316;SDS011;7242;50.858;6.586;2024-03-08T08:54:03;22.43;;;16.10;;
14316;SDS011;7242;50.858;6.586;2024-03-08T08:57:04;21.90;;;16.57;;
14316;SDS011;7242;50.858;6.586;2024-03-08T09:00:08;22.00;;;16.20;;
14316;SDS011;7242;50.858;6.586;2024-03-08T09:03:11;23.67;;;16.73;;
14316;SDS011;7242;50.858;6.586;2024-03-08T09:06:12;22.07;;;16.23;;
14316;SDS011;7242;50.858;6.586;2024-03-08T09:09:13;24.77;;;17.60;;
14316;SDS011;7242;50.858;6.586;2024-03-08T09:12:14;21.27;;;15.87;;
14316;SDS011;7242;50.858;6.586;2024-03-08T09:15:16;24.23;;;17.03;;
14316;SDS011;7242;50.858;6.586;2024-03-08T09:18:18;23.33;;;16.90;;
14316;SDS011;7242;50.858;6.586;2024-03-08T09:21:19;21.83;;;16.30;;
14316;SDS011;7242;50.858;6.586;2024-03-08T09:24:20;23.30;;;16.80;;
14316;SDS011;7242;50.858;6.586;2024-03-08T09:27:22;24.53;;;16.97;;
14316;SDS011;7242;50.858;6.586;2024-03-08T09:30:23;22.60;;;16.83;;
14316;SDS011;7242;50.858;6.586;2024-03-08T09:33:24;22.23;;;16.60;;
14316;SDS011;7242;50.858;6.586;2024-03-08T09:36:27;22.03;;;15.60;;
14316;SDS011;7242;50.858;6.586;2024-03-08T09:39:28;23.83;;;16.10;;
14316;SDS011;7242;50.858;6.586;2024-03-08T09:42:29;21.97;;;15.87;;
14316;SDS011;7242;50.858;6.586;2024-03-08T09:45:30;21.63;;;15.43;;
14316;SDS011;7242;50.858;6.586;2024-03-08T09:48:36;22.60;;;15.03;;
14316;SDS011;7242;50.858;6.586;2024-03-08T09:51:37;22.17;;;15.80;;
14316;SDS011;7242;50.858;6.586;2024-03-08T09:54:41;21.07;;;14.33;;
14316;SDS011;7242;50.858;6.586;2024-03-08T09:57:44;20.50;;;14.93;;
14316;SDS011;7242;50.858;6.586;2024-03-08T10:01:05;21.37;;;14.33;;
14316;SDS011;7242;50.858;6.586;2024-03-08T10:04:06;19.77;;;15.27;;
14316;SDS011;7242;50.858;6.586;2024-03-08T10:07:07;19.93;;;14.43;;
14316;SDS011;7242;50.858;6.586;2024-03-08T10:10:09;18.90;;;14.33;;
14316;SDS011;7242;50.858;6.586;2024-03-08T10:13:12;19.73;;;14.00;;
14316;SDS011;7242;50.858;6.586;2024-03-08T10:16:14;20.73;;;14.93;;
14316;SDS011;7242;50.858;6.586;2024-03-08T10:19:17;18.57;;;13.90;;
14316;SDS011;7242;50.858;6.586;2024-03-08T10:22:18;17.00;;;13.40;;
14316;SDS011;7242;50.858;6.586;2024-03-08T10:25:19;18.73;;;14.70;;
14316;SDS011;7242;50.858;6.586;2024-03-08T10:28:22;18.13;;;13.30;;
14316;SDS011;7242;50.858;6.586;2024-03-08T10:31:25;18.27;;;14.13;;
14316;SDS011;7242;50.858;6.586;2024-03-08T10:34:25;16.83;;;13.30;;
14316;SDS011;7242;50.858;6.586;2024-03-08T10:37:26;20.23;;;14.50;;
14316;SDS011;7242;50.858;6.586;2024-03-08T10:40:29;19.57;;;13.40;;
14316;SDS011;7242;50.858;6.586;2024-03-08T10:43:31;21.93;;;14.17;;
14316;SDS011;7242;50.858;6.586;2024-03-08T10:53:08;17.23;;;13.87;;
14316;SDS011;7242;50.858;6.586;2024-03-08T10:56:11;19.43;;;13.23;;
14316;SDS011;7242;50.858;6.586;2024-03-08T10:59:14;16.77;;;13.20;;
14316;SDS011;7242;50.858;6.586;2024-03-08T11:02:17;15.57;;;12.50;;
14316;SDS011;7242;50.858;6.586;2024-03-08T11:05:32;17.30;;;13.27;;
14316;SDS011;7242;50.858;6.586;2024-03-08T11:08:39;16.20;;;13.53;;
14316;SDS011;7242;50.858;6.586;2024-03-08T11:11:41;17.77;;;13.07;;
14316;SDS011;7242;50.858;6.586;2024-03-08T11:14:43;15.53;;;12.60;;
14316;SDS011;7242;50.858;6.586;2024-03-08T11:17:49;18.00;;;12.13;;
14316;SDS011;7242;50.858;6.586;2024-03-08T11:20:53;13.77;;;11.90;;
14316;SDS011;7242;50.858;6.586;2024-03-08T11:24:01;14.63;;;11.83;;
14316;SDS011;7242;50.858;6.586;2024-03-08T11:27:05;16.73;;;12.23;;
14316;SDS011;7242;50.858;6.586;2024-03-08T11:30:07;13.67;;;12.13;;
14316;SDS011;7242;50.858;6.586;2024-03-08T11:33:12;13.20;;;11.20;;
14316;SDS011;7242;50.858;6.586;2024-03-08T11:36:19;13.77;;;11.00;;
14316;SDS011;7242;50.858;6.586;2024-03-08T11:39:22;14.90;;;11.50;;
14316;SDS011;7242;50.858;6.586;2024-03-08T11:42:24;13.60;;;11.10;;
14316;SDS011;7242;50.858;6.586;2024-03-08T11:45:28;14.77;;;11.60;;
14316;SDS011;7242;50.858;6.586;2024-03-08T11:48:30;14.67;;;11.23;;
14316;SDS011;7242;50.858;6.586;2024-03-08T11:51:32;14.37;;;10.93;;
14316;SDS011;7242;50.858;6.586;2024-03-08T11:54:33;14.43;;;11.43;;
14316;SDS011;7242;50.858;6.586;2024-03-08T11:57:36;14.60;;;11.60;;
14316;SDS011;7242;50.858;6.586;2024-03-08T12:00:37;15.53;;;11.73;;
14316;SDS011;7242;50.858;6.586;2024-03-08T12:03:42;14.47;;;10.67;;
14316;SDS011;7242;50.858;6.586;2024-03-08T12:06:43;13.37;;;10.73;;
14316;SDS011;7242;50.858;6.586;2024-03-08T12:13:19;14.40;;;11.83;;
14316;SDS011;7242;50.858;6.586;2024-03-08T12:16:20;15.33;;;11.57;;
14316;SDS011;7242;50.858;6.586;2024-03-08T12:19:22;15.30;;;11.10;;
14316;SDS011;7242;50.858;6.586;2024-03-08T12:22:25;13.23;;;11.43;;
14316;SDS011;7242;50.858;6.586;2024-03-08T12:25:29;15.03;;;11.33;;
14316;SDS011;7242;50.858;6.586;2024-03-08T12:28:35;12.40;;;10.60;;
14316;SDS011;7242;50.858;6.586;2024-03-08T12:31:36;13.43;;;10.97;;
14316;SDS011;7242;50.858;6.586;2024-03-08T12:34:37;14.57;;;12.20;;
14316;SDS011;7242;50.858;6.586;2024-03-08T12:37:38;13.93;;;11.47;;
14316;SDS011;7242;50.858;6.586;2024-03-08T12:40:40;14.27;;;11.67;;
14316;SDS011;7242;50.858;6.586;2024-03-08T12:43:42;13.40;;;10.80;;
14316;SDS011;7242;50.858;6.586;2024-03-08T12:46:49;12.67;;;11.17;;
14316;SDS011;7242;50.858;6.586;2024-03-08T12:49:51;14.13;;;11.37;;
14316;SDS011;7242;50.858;6.586;2024-03-08T12:52:52;15.27;;;12.20;;
14316;SDS011;7242;50.858;6.586;2024-03-08T12:55:53;16.00;;;11.37;;
14316;SDS011;7242;50.858;6.586;2024-03-08T12:58:56;13.67;;;11.07;;
14316;SDS011;7242;50.858;6.586;2024-03-08T13:01:57;15.47;;;12.37;;
14316;SDS011;7242;50.858;6.586;2024-03-08T13:05:00;12.83;;;11.40;;
14316;SDS011;7242;50.858;6.586;2024-03-08T13:08:01;13.37;;;11.07;;
14316;SDS011;7242;50.858;6.586;2024-03-08T13:11:02;14.20;;;11.73;;
14316;SDS011;7242;50.858;6.586;2024-03-08T13:14:04;12.60;;;11.20;;
14316;SDS011;7242;50.858;6.586;2024-03-08T13:17:07;12.23;;;10.83;;
14316;SDS011;7242;50.858;6.586;2024-03-08T13:20:11;14.13;;;11.00;;
14316;SDS011;7242;50.858;6.586;2024-03-08T13:23:18;12.53;;;11.10;;
14316;SDS011;7242;50.858;6.586;2024-03-08T13:26:19;14.47;;;11.03;;
14316;SDS011;7242;50.858;6.586;2024-03-08T13:29:21;12.23;;;10.27;;
14316;SDS011;7242;50.858;6.586;2024-03-08T13:32:23;13.17;;;10.20;;
14316;SDS011;7242;50.858;6.586;2024-03-08T13:35:25;12.43;;;10.03;;
14316;SDS011;7242;50.858;6.586;2024-03-08T13:38:27;13.47;;;11.07;;
14316;SDS011;7242;50.858;6.586;2024-03-08T13:41:28;12.47;;;9.97;;
14316;SDS011;7242;50.858;6.586;2024-03-08T13:44:29;13.13;;;10.53;;
14316;SDS011;7242;50.858;6.586;2024-03-08T13:47:30;14.03;;;11.03;;
14316;SDS011;7242;50.858;6.586;2024-03-08T13:50:32;13.57;;;10.37;;
14316;SDS011;7242;50.858;6.586;2024-03-08T13:53:33;12.97;;;10.73;;
14316;SDS011;7242;50.858;6.586;2024-03-08T13:56:37;14.20;;;10.63;;
14316;SDS011;7242;50.858;6.586;2024-03-08T13:59:38;12.97;;;11.07;;
14316;SDS011;7242;50.858;6.586;2024-03-08T14:02:40;11.60;;;9.93;;
14316;SDS011;7242;50.858;6.586;2024-03-08T14:05:41;13.70;;;10.60;;
14316;SDS011;7242;50.858;6.586;2024-03-08T14:08:42;14.37;;;11.13;;
14316;SDS011;7242;50.858;6.586;2024-03-08T14:11:44;12.93;;;10.37;;
14316;SDS011;7242;50.858;6.586;2024-03-08T14:14:45;12.53;;;10.20;;
14316;SDS011;7242;50.858;6.586;2024-03-08T14:17:52;13.93;;;10.70;;
14316;SDS011;7242;50.858;6.586;2024-03-08T14:20:53;13.97;;;10.40;;
14316;SDS011;7242;50.858;6.586;2024-03-08T14:23:54;11.70;;;10.20;;
14316;SDS011;7242;50.858;6.586;2024-03-08T14:26:55;11.50;;;9.80;;
14316;SDS011;7242;50.858;6.586;2024-03-08T14:29:59;12.97;;;10.20;;
14316;SDS011;7242;50.858;6.586;2024-03-08T14:33:06;13.03;;;9.87;;
14316;SDS011;7242;50.858;6.586;2024-03-08T14:36:10;12.50;;;10.27;;
14316;SDS011;7242;50.858;6.586;2024-03-08T14:39:13;13.23;;;10.00;;
14316;SDS011;7242;50.858;6.586;2024-03-08T14:42:14;13.00;;;10.70;;
14316;SDS011;7242;50.858;6.586;2024-03-08T14:45:16;12.77;;;10.07;;
14316;SDS011;7242;50.858;6.586;2024-03-08T14:48:19;13.07;;;10.40;;
14316;SDS011;7242;50.858;6.586;2024-03-08T14:51:22;11.57;;;9.80;;
14316;SDS011;7242;50.858;6.586;2024-03-08T14:54:25;12.83;;;9.87;;
14316;SDS011;7242;50.858;6.586;2024-03-08T14:57:26;10.40;;;9.23;;
14316;SDS011;7242;50.858;6.586;2024-03-08T15:00:27;12.27;;;10.67;;
14316;SDS011;7242;50.858;6.586;2024-03-08T15:03:35;12.57;;;10.70;;
14316;SDS011;7242;50.858;6.586;2024-03-08T15:06:37;13.60;;;9.93;;
14316;SDS011;7242;50.858;6.586;2024-03-08T15:09:39;12.20;;;10.60;;
14316;SDS011;7242;50.858;6.586;2024-03-08T15:12:44;11.27;;;9.60;;
14316;SDS011;7242;50.858;6.586;2024-03-08T15:15:46;14.33;;;10.10;;
14316;SDS011;7242;50.858;6.586;2024-03-08T15:18:51;13.60;;;9.60;;
14316;SDS011;7242;50.858;6.586;2024-03-08T15:21:53;12.53;;;9.40;;
14316;SDS011;7242;50.858;6.586;2024-03-08T15:24:56;12.23;;;9.93;;
14316;SDS011;7242;50.858;6.586;2024-03-08T15:27:58;12.50;;;9.60;;
14316;SDS011;7242;50.858;6.586;2024-03-08T15:31:00;12.37;;;10.07;;
14316;SDS011;7242;50.858;6.586;2024-03-08T15:34:05;14.47;;;10.00;;
14316;SDS011;7242;50.858;6.586;2024-03-08T15:37:07;17.63;;;10.27;;
14316;SDS011;7242;50.858;6.586;2024-03-08T15:40:11;10.53;;;9.07;;
14316;SDS011;7242;50.858;6.586;2024-03-08T15:43:23;13.43;;;9.37;;
14316;SDS011;7242;50.858;6.586;2024-03-08T15:46:25;12.73;;;10.10;;
14316;SDS011;7242;50.858;6.586;2024-03-08T15:49:26;15.27;;;9.60;;
14316;SDS011;7242;50.858;6.586;2024-03-08T15:52:28;12.47;;;10.27;;
14316;SDS011;7242;50.858;6.586;2024-03-08T15:55:29;12.37;;;9.83;;
14316;SDS011;7242;50.858;6.586;2024-03-08T15:58:31;11.90;;;9.90;;
14316;SDS011;7242;50.858;6.586;2024-03-08T16:01:33;13.43;;;9.97;;
14316;SDS011;7242;50.858;6.586;2024-03-08T16:04:33;12.93;;;10.20;;
14316;SDS011;7242;50.858;6.586;2024-03-08T16:07:35;12.60;;;9.10;;
14316;SDS011;7242;50.858;6.586;2024-03-08T16:10:36;15.33;;;10.13;;
14316;SDS011;7242;50.858;6.586;2024-03-08T16:13:37;13.33;;;9.87;;
14316;SDS011;7242;50.858;6.586;2024-03-08T16:16:38;12.93;;;9.80;;
14316;SDS011;7242;50.858;6.586;2024-03-08T16:19:39;12.53;;;10.00;;
14316;SDS011;7242;50.858;6.586;2024-03-08T16:22:42;11.40;;;9.53;;
14316;SDS011;7242;50.858;6.586;2024-03-08T16:25:46;12.73;;;9.60;;
14316;SDS011;7242;50.858;6.586;2024-03-08T16:28:47;12.07;;;9.90;;
14316;SDS011;7242;50.858;6.586;2024-03-08T16:31:48;12.57;;;9.53;;
14316;SDS011;7242;50.858;6.586;2024-03-08T16:34:49;12.27;;;9.87;;
14316;SDS011;7242;50.858;6.586;2024-03-08T16:37:51;11.67;;;9.37;;
14316;SDS011;7242;50.858;6.586;2024-03-08T16:40:53;12.80;;;9.53;;
14316;SDS011;7242;50.858;6.586;2024-03-08T16:44:00;13.67;;;9.63;;
14316;SDS011;7242;50.858;6.586;2024-03-08T16:47:03;14.23;;;10.50;;
14316;SDS011;7242;50.858;6.586;2024-03-08T16:50:04;12.60;;;9.80;;
14316;SDS011;7242;50.858;6.586;2024-03-08T16:53:06;10.93;;;9.67;;
14316;SDS011;7242;50.858;6.586;2024-03-08T16:56:07;13.13;;;10.43;;
14316;SDS011;7242;50.858;6.586;2024-03-08T16:59:11;12.37;;;9.40;;
14316;SDS011;7242;50.858;6.586;2024-03-08T17:02:12;13.83;;;10.77;;
14316;SDS011;7242;50.858;6.586;2024-03-08T17:05:14;14.50;;;9.87;;
14316;SDS011;7242;50.858;6.586;2024-03-08T17:08:16;14.13;;;10.60;;
14316;SDS011;7242;50.858;6.586;2024-03-08T17:11:18;11.93;;;9.50;;
14316;SDS011;7242;50.858;6.586;2024-03-08T17:14:19;13.33;;;9.17;;
14316;SDS011;7242;50.858;6.586;2024-03-08T17:17:21;12.50;;;9.13;;
14316;SDS011;7242;50.858;6.586;2024-03-08T17:20:22;15.03;;;10.40;;
14316;SDS011;7242;50.858;6.586;2024-03-08T17:23:24;14.73;;;10.07;;
14316;SDS011;7242;50.858;6.586;2024-03-08T17:26:27;13.93;;;10.07;;
14316;SDS011;7242;50.858;6.586;2024-03-08T17:29:28;14.50;;;10.20;;
14316;SDS011;7242;50.858;6.586;2024-03-08T17:32:29;15.27;;;10.60;;
14316;SDS011;7242;50.858;6.586;2024-03-08T17:35:33;14.83;;;10.27;;
14316;SDS011;7242;50.858;6.586;2024-03-08T17:38:35;13.00;;;9.57;;
14316;SDS011;7242;50.858;6.586;2024-03-08T17:41:36;13.80;;;10.23;;
14316;SDS011;7242;50.858;6.586;2024-03-08T17:44:37;14.23;;;10.30;;
14316;SDS011;7242;50.858;6.586;2024-03-08T17:47:38;16.67;;;10.60;;
14316;SDS011;7242;50.858;6.586;2024-03-08T17:50:39;13.20;;;9.87;;
14316;SDS011;7242;50.858;6.586;2024-03-08T17:53:40;15.03;;;10.60;;
14316;SDS011;7242;50.858;6.586;2024-03-08T17:56:42;13.87;;;10.73;;
14316;SDS011;7242;50.858;6.586;2024-03-08T17:59:43;15.27;;;11.27;;
14316;SDS011;7242;50.858;6.586;2024-03-08T18:02:46;15.10;;;10.90;;
14316;SDS011;7242;50.858;6.586;2024-03-08T18:05:50;15.77;;;10.93;;
14316;SDS011;7242;50.858;6.586;2024-03-08T18:08:51;13.77;;;10.70;;
14316;SDS011;7242;50.858;6.586;2024-03-08T18:11:52;14.73;;;11.00;;